createdAt,value
2019-04-12T00:00:08.792Z,2.86
2019-04-12T00:02:36.191Z,2.87
2019-04-12T00:05:03.628Z,2.81
2019-04-12T00:07:33.213Z,2.77
2019-04-12T00:09:59.932Z,2.76
2019-04-12T00:12:27.123Z,2.75
2019-04-12T00:14:54.519Z,2.73
2019-04-12T00:17:21.657Z,2.70
2019-04-12T00:19:48.921Z,2.76
2019-04-12T00:22:16.687Z,2.74
2019-04-12T00:24:46.934Z,2.77
2019-04-12T00:27:13.042Z,2.76
2019-04-12T00:29:40.199Z,2.81
2019-04-12T00:32:07.413Z,2.76
2019-04-12T00:34:34.906Z,2.76
2019-04-12T00:37:02.214Z,2.74
2019-04-12T00:39:30.601Z,2.66
2019-04-12T00:42:00.019Z,2.46
2019-04-12T00:44:27.018Z,2.43
2019-04-12T00:46:56.937Z,2.36
2019-04-12T00:49:24.293Z,2.31
2019-04-12T00:51:51.500Z,2.27
2019-04-12T00:54:18.741Z,2.17
2019-04-12T00:56:46.738Z,2.15
2019-04-12T00:59:17.296Z,2.31
2019-04-12T01:02:03.804Z,2.28
2019-04-12T01:04:38.171Z,2.32
2019-04-12T01:07:05.313Z,2.25
2019-04-12T01:09:32.569Z,2.17
2019-04-12T01:11:59.799Z,2.08
2019-04-12T01:14:28.302Z,2.05
2019-04-12T01:16:55.607Z,2.06
2019-04-12T01:19:22.787Z,2.05
2019-04-12T01:21:50.287Z,2.02
2019-04-12T01:24:17.675Z,1.97
2019-04-12T01:26:46.404Z,1.95
2019-04-12T01:29:17.814Z,1.96
2019-04-12T01:31:42.789Z,1.97
2019-04-12T01:34:10.285Z,1.94
2019-04-12T01:36:37.453Z,2.01
2019-04-12T01:39:05.775Z,1.99
2019-04-12T01:41:32.990Z,2.04
2019-04-12T01:44:00.123Z,2.05
2019-04-12T01:46:27.305Z,1.99
2019-04-12T01:48:54.521Z,1.93
2019-04-12T01:51:21.706Z,1.93
2019-04-12T01:53:48.857Z,1.87
2019-04-12T01:56:16.065Z,1.89
2019-04-12T01:58:43.210Z,1.87
2019-04-12T02:01:10.392Z,2.03
2019-04-12T02:03:37.574Z,2.04
2019-04-12T02:06:04.739Z,1.94
2019-04-12T02:08:31.878Z,1.84
2019-04-12T02:10:59.173Z,1.87
2019-04-12T02:13:26.353Z,1.92
2019-04-12T02:15:53.748Z,1.90
2019-04-12T02:18:20.922Z,1.89
2019-04-12T02:20:48.922Z,1.80
2019-04-12T02:23:16.060Z,1.74
2019-04-12T02:25:44.116Z,1.76
2019-04-12T02:28:11.261Z,1.73
2019-04-12T02:30:39.374Z,1.75
2019-04-12T02:33:06.808Z,1.80
2019-04-12T02:35:38.063Z,1.91
2019-04-12T02:38:06.234Z,1.87
2019-04-12T02:40:34.126Z,1.80
2019-04-12T02:43:03.103Z,1.70
2019-04-12T02:45:32.922Z,1.68
2019-04-12T02:48:03.625Z,1.79
2019-04-12T02:50:58.845Z,1.77
2019-04-12T02:53:48.004Z,1.73
2019-04-12T02:56:38.454Z,1.61
2019-04-12T02:59:09.026Z,1.72
2019-04-12T03:01:39.554Z,1.59
2019-04-12T03:04:07.065Z,1.52
2019-04-12T03:06:34.772Z,1.47
2019-04-12T03:09:02.059Z,1.49
2019-04-12T03:11:32.578Z,1.48
2019-04-12T03:14:01.383Z,1.48
2019-04-12T03:16:29.692Z,1.44
2019-04-12T03:18:56.761Z,1.42
2019-04-12T03:21:24.129Z,1.49
2019-04-12T03:23:51.878Z,1.47
2019-04-12T03:26:19.129Z,1.59
2019-04-12T03:28:48.530Z,1.56
2019-04-12T03:31:16.153Z,1.57
2019-04-12T03:33:43.362Z,1.55
2019-04-12T03:36:10.545Z,1.54
2019-04-12T03:38:37.688Z,1.57
2019-04-12T03:41:04.871Z,1.57
2019-04-12T03:43:32.020Z,1.54
2019-04-12T03:45:59.193Z,1.56
2019-04-12T03:48:26.338Z,1.55
2019-04-12T03:50:53.468Z,1.50
2019-04-12T03:53:21.660Z,1.52
2019-04-12T03:55:49.235Z,1.72
2019-04-12T03:58:16.419Z,1.90
2019-04-12T04:00:45.301Z,1.86
2019-04-12T04:03:12.424Z,1.89
2019-04-12T04:05:39.614Z,1.92
2019-04-12T04:08:07.221Z,2.04
2019-04-12T04:10:34.560Z,2.15
2019-04-12T04:13:02.286Z,2.27
2019-04-12T04:15:30.238Z,2.35
2019-04-12T04:18:29.009Z,2.42
2019-04-12T04:21:16.058Z,2.51
2019-04-12T04:24:06.155Z,2.57
2019-04-12T04:26:46.499Z,2.65
2019-04-12T04:29:20.976Z,2.80
2019-04-12T04:31:54.541Z,2.86
2019-04-12T04:34:21.990Z,2.92
2019-04-12T04:36:49.245Z,2.94
2019-04-12T04:39:16.605Z,2.96
2019-04-12T04:41:44.379Z,3.04
2019-04-12T04:44:11.552Z,3.08
2019-04-12T04:46:38.901Z,3.20
2019-04-12T04:49:06.749Z,3.17
2019-04-12T04:51:33.915Z,3.20
2019-04-12T04:54:01.306Z,3.24
2019-04-12T04:56:33.955Z,3.28
2019-04-12T04:58:57.861Z,3.32
2019-04-12T05:01:25.397Z,3.47
2019-04-12T05:03:52.677Z,3.48
2019-04-12T05:06:19.937Z,3.47
2019-04-12T05:08:47.120Z,3.52
2019-04-12T05:11:15.125Z,3.61
2019-04-12T05:13:42.476Z,3.74
2019-04-12T05:16:09.640Z,3.68
2019-04-12T05:18:36.948Z,3.63
2019-04-12T05:21:04.007Z,3.69
2019-04-12T05:23:31.194Z,3.79
2019-04-12T05:25:58.581Z,3.83
2019-04-12T05:28:25.744Z,3.89
2019-04-12T05:30:53.312Z,3.96
2019-04-12T05:33:20.802Z,3.98
2019-04-12T05:35:48.187Z,4.07
2019-04-12T05:38:15.238Z,4.17
2019-04-12T05:40:42.432Z,4.17
2019-04-12T05:43:09.696Z,4.24
2019-04-12T05:45:47.975Z,4.31
2019-04-12T05:48:20.342Z,4.38
2019-04-12T05:50:47.544Z,4.50
2019-04-12T05:53:14.789Z,4.57
2019-04-12T05:55:47.879Z,4.67
2019-04-12T05:58:37.257Z,4.75
2019-04-12T06:01:26.345Z,4.85
2019-04-12T06:03:53.553Z,4.81
2019-04-12T06:06:20.702Z,4.80
2019-04-12T06:08:47.911Z,4.81
2019-04-12T06:11:15.052Z,4.86
2019-04-12T06:13:43.250Z,4.97
2019-04-12T06:16:10.621Z,5.15
2019-04-12T06:18:38.300Z,5.29
2019-04-12T06:21:20.335Z,5.30
2019-04-12T06:23:47.552Z,5.35
2019-04-12T06:26:19.903Z,5.55
2019-04-12T06:28:47.402Z,5.61
2019-04-12T06:31:15.696Z,5.68
2019-04-12T06:33:42.846Z,5.83
2019-04-12T06:36:09.998Z,6.01
2019-04-12T06:38:37.192Z,6.07
2019-04-12T06:41:04.698Z,6.09
2019-04-12T06:43:31.872Z,6.37
2019-04-12T06:45:59.598Z,6.64
2019-04-12T06:48:26.738Z,7.08
2019-04-12T06:50:58.055Z,7.35
2019-04-12T06:53:25.218Z,7.67
2019-04-12T06:55:56.783Z,7.72
2019-04-12T06:58:23.971Z,7.96
2019-04-12T07:01:04.753Z,8.03
2019-04-12T07:04:00.407Z,7.97
2019-04-12T07:06:27.831Z,7.74
2019-04-12T07:08:54.981Z,8.27
2019-04-12T07:11:22.466Z,8.54
2019-04-12T07:13:49.556Z,8.76
2019-04-12T07:16:16.766Z,8.88
2019-04-12T07:18:44.149Z,9.19
2019-04-12T07:21:11.390Z,9.22
2019-04-12T07:23:38.550Z,9.74
2019-04-12T07:26:06.060Z,9.57
2019-04-12T07:28:33.250Z,10.02
2019-04-12T07:31:00.739Z,10.56
2019-04-12T07:33:27.916Z,12.15
2019-04-12T07:35:55.029Z,14.78
2019-04-12T07:38:22.169Z,15.43
2019-04-12T07:40:49.352Z,16.24
2019-04-12T07:43:16.526Z,15.41
2019-04-12T07:45:44.017Z,15.84
2019-04-12T07:48:11.269Z,15.15
2019-04-12T07:50:43.539Z,15.06
2019-04-12T07:53:11.659Z,15.12
2019-04-12T07:56:07.158Z,15.19
2019-04-12T07:58:42.016Z,16.04
2019-04-12T08:01:23.533Z,16.50
2019-04-12T08:04:19.300Z,17.32
2019-04-12T08:06:51.268Z,17.48
2019-04-12T08:09:18.720Z,16.78
2019-04-12T08:11:46.418Z,17.40
2019-04-12T08:14:14.074Z,16.75
2019-04-12T08:16:41.232Z,17.10
2019-04-12T08:19:08.717Z,17.51
2019-04-12T08:21:35.951Z,17.94
2019-04-12T08:24:03.121Z,17.40
2019-04-12T08:26:30.216Z,16.16
2019-04-12T08:28:57.448Z,16.88
2019-04-12T08:31:24.617Z,17.99
2019-04-12T08:33:51.806Z,19.06
2019-04-12T08:36:19.113Z,19.76
2019-04-12T08:38:46.304Z,20.29
2019-04-12T08:41:13.474Z,19.23
2019-04-12T08:43:40.687Z,18.15
2019-04-12T08:46:07.831Z,17.38
2019-04-12T08:48:34.999Z,16.53
2019-04-12T08:51:02.120Z,15.28
2019-04-12T08:53:29.306Z,15.41
2019-04-12T08:55:56.522Z,16.19
2019-04-12T08:58:23.698Z,15.37
2019-04-12T09:00:50.943Z,15.30
2019-04-12T09:03:18.055Z,14.16
2019-04-12T09:05:45.514Z,13.98
2019-04-12T09:08:12.559Z,14.21
2019-04-12T09:10:39.823Z,14.07
2019-04-12T09:13:07.488Z,14.91
2019-04-12T09:15:35.218Z,15.90
2019-04-12T09:18:02.614Z,16.58
2019-04-12T09:20:47.651Z,16.81
2019-04-12T09:23:46.390Z,16.76
2019-04-12T09:26:13.691Z,16.27
2019-04-12T09:28:40.904Z,15.81
2019-04-12T09:31:08.227Z,16.47
2019-04-12T09:33:35.547Z,16.17
2019-04-12T09:36:02.725Z,16.05
2019-04-12T09:38:29.904Z,16.13
2019-04-12T09:40:57.101Z,16.43
2019-04-12T09:43:24.272Z,15.64
2019-04-12T09:45:51.506Z,15.47
2019-04-12T09:48:18.701Z,16.37
2019-04-12T09:50:45.777Z,15.98
2019-04-12T09:53:13.208Z,15.81
2019-04-12T09:55:40.431Z,15.83
2019-04-12T09:58:07.585Z,14.64
2019-04-12T10:00:34.669Z,14.47
2019-04-12T10:03:01.858Z,15.32
2019-04-12T10:05:30.049Z,14.32
2019-04-12T10:07:57.204Z,14.09
2019-04-12T10:10:24.770Z,14.18
2019-04-12T10:12:51.924Z,14.75
2019-04-12T10:15:20.041Z,14.65
2019-04-12T10:17:47.138Z,15.14
2019-04-12T10:20:14.341Z,15.48
2019-04-12T10:22:41.819Z,16.08
2019-04-12T10:25:09.054Z,16.36
2019-04-12T10:27:38.507Z,16.56
2019-04-12T10:30:06.099Z,16.69
2019-04-12T10:32:33.281Z,16.20
2019-04-12T10:35:01.421Z,16.25
2019-04-12T10:37:28.729Z,16.26
2019-04-12T10:39:55.917Z,15.89
2019-04-12T10:42:23.012Z,15.78
2019-04-12T10:44:57.319Z,15.53
2019-04-12T10:47:37.262Z,14.52
2019-04-12T10:50:23.454Z,14.80
2019-04-12T10:53:00.284Z,14.65
2019-04-12T10:55:31.005Z,13.36
2019-04-12T10:57:58.359Z,13.03
2019-04-12T11:00:27.625Z,13.83
2019-04-12T11:02:54.729Z,14.10
2019-04-12T11:05:21.913Z,13.33
2019-04-12T11:07:49.116Z,13.62
2019-04-12T11:10:17.058Z,13.82
2019-04-12T11:12:44.239Z,14.42
2019-04-12T11:15:21.186Z,13.24
2019-04-12T11:17:40.668Z,12.59
2019-04-12T11:20:08.250Z,12.40
2019-04-12T11:22:35.435Z,12.36
2019-04-12T11:25:03.044Z,12.75
2019-04-12T11:27:30.324Z,12.90
2019-04-12T11:29:57.535Z,13.00
2019-04-12T11:32:24.942Z,13.05
2019-04-12T11:34:52.118Z,13.38
2019-04-12T11:37:19.618Z,13.45
2019-04-12T11:39:46.714Z,12.91
2019-04-12T11:42:13.856Z,13.19
2019-04-12T11:44:40.971Z,13.73
2019-04-12T11:47:08.174Z,13.47
2019-04-12T11:49:35.400Z,13.31
2019-04-12T11:52:02.580Z,12.67
2019-04-12T11:54:29.773Z,12.14
2019-04-12T11:56:57.030Z,12.09
2019-04-12T11:59:29.791Z,12.18
2019-04-12T12:02:08.184Z,12.46
2019-04-12T12:05:13.256Z,12.81
2019-04-12T12:07:57.293Z,12.85
2019-04-12T12:10:48.612Z,12.39
2019-04-12T12:13:44.187Z,12.29
2019-04-12T12:16:23.512Z,12.18
2019-04-12T12:18:54.136Z,12.04
2019-04-12T12:21:21.204Z,12.46
2019-04-12T12:23:48.364Z,13.09
2019-04-12T12:26:15.607Z,13.67
2019-04-12T12:28:42.771Z,13.91
2019-04-12T12:31:09.971Z,13.68
2019-04-12T12:33:37.149Z,13.23
2019-04-12T12:36:04.233Z,13.42
2019-04-12T12:38:31.457Z,13.23
2019-04-12T12:40:58.649Z,12.79
2019-04-12T12:43:25.893Z,12.55
2019-04-12T12:45:53.084Z,12.71
2019-04-12T12:48:20.341Z,13.03
2019-04-12T12:50:47.395Z,13.15
2019-04-12T12:53:14.617Z,13.23
2019-04-12T12:55:41.807Z,13.56
2019-04-12T12:58:08.877Z,13.54
2019-04-12T13:00:36.364Z,13.06
2019-04-12T13:03:03.801Z,12.78
2019-04-12T13:05:30.871Z,12.63
2019-04-12T13:07:58.295Z,12.34
2019-04-12T13:10:25.650Z,12.18
2019-04-12T13:12:52.870Z,12.00
2019-04-12T13:15:20.042Z,12.02
2019-04-12T13:17:50.336Z,11.59
2019-04-12T13:20:17.671Z,11.39
2019-04-12T13:22:54.181Z,11.81
2019-04-12T13:25:29.158Z,12.16
2019-04-12T13:27:57.871Z,12.58
2019-04-12T13:30:47.957Z,12.29
2019-04-12T13:33:37.756Z,11.91
2019-04-12T13:36:17.377Z,11.71
2019-04-12T13:39:13.133Z,11.84
2019-04-12T13:41:41.121Z,11.87
2019-04-12T13:44:08.450Z,11.82
2019-04-12T13:46:36.090Z,12.10
2019-04-12T13:49:03.716Z,12.26
2019-04-12T13:51:31.000Z,11.99
2019-04-12T13:53:58.267Z,11.75
2019-04-12T13:56:26.158Z,11.61
2019-04-12T13:58:53.500Z,11.32
2019-04-12T14:01:20.672Z,11.25
2019-04-12T14:03:48.152Z,11.40
2019-04-12T14:06:15.628Z,11.21
2019-04-12T14:08:45.922Z,11.33
2019-04-12T14:11:13.199Z,11.46
2019-04-12T14:17:05.136Z,10.91
2019-04-12T14:19:35.527Z,10.91
2019-04-12T14:22:25.639Z,11.21
2019-04-12T14:24:53.289Z,11.09
2019-04-12T14:27:20.579Z,11.02
2019-04-12T14:29:48.087Z,10.83
2019-04-12T14:32:21.777Z,10.91
2019-04-12T14:35:00.547Z,11.03
2019-04-12T14:37:47.382Z,11.05
2019-04-12T14:40:25.244Z,10.87
2019-04-12T14:43:43.669Z,10.71
2019-04-12T14:49:31.008Z,10.30
2019-04-12T14:54:38.849Z,10.38
2019-04-12T14:57:06.040Z,10.32
2019-04-12T14:59:33.213Z,10.17
2019-04-12T15:02:00.460Z,10.13
2019-04-12T15:04:27.682Z,10.10
2019-04-12T15:06:54.923Z,10.06
2019-04-12T15:09:22.398Z,10.11
2019-04-12T15:11:49.627Z,10.16
2019-04-12T15:14:16.898Z,10.19
2019-04-12T15:16:44.236Z,10.14
2019-04-12T15:19:11.468Z,10.16
2019-04-12T15:21:38.948Z,10.02
2019-04-12T15:24:06.058Z,9.88
2019-04-12T15:26:33.293Z,9.97
2019-04-12T15:29:00.394Z,9.88
2019-04-12T15:31:27.542Z,10.01
2019-04-12T15:33:54.722Z,9.84
2019-04-12T15:36:21.927Z,9.50
2019-04-12T15:38:49.172Z,9.51
2019-04-12T15:41:16.352Z,9.50
2019-04-12T15:43:43.838Z,9.40
2019-04-12T15:46:11.285Z,9.48
2019-04-12T15:48:38.445Z,9.50
2019-04-12T15:51:05.612Z,9.26
2019-04-12T15:53:32.828Z,9.28
2019-04-12T15:56:00.014Z,9.32
2019-04-12T15:58:27.224Z,9.35
2019-04-12T16:01:11.669Z,9.09
2019-04-12T16:03:32.322Z,9.13
2019-04-12T16:05:59.934Z,9.13
2019-04-12T16:08:34.027Z,9.11
2019-04-12T16:11:08.169Z,9.09
2019-04-12T16:14:09.043Z,9.11
2019-04-12T16:17:12.225Z,8.99
2019-04-12T16:19:39.435Z,8.66
2019-04-12T16:22:06.917Z,8.62
2019-04-12T16:24:34.143Z,8.73
2019-04-12T16:27:02.280Z,8.70
2019-04-12T16:29:38.088Z,8.65
2019-04-12T16:32:13.344Z,8.66
2019-04-12T16:35:12.242Z,8.69
2019-04-12T16:38:08.640Z,8.70
2019-04-12T16:40:35.842Z,8.65
2019-04-12T16:43:03.351Z,8.54
2019-04-12T16:45:30.909Z,8.39
2019-04-12T16:47:58.143Z,8.25
2019-04-12T16:50:25.346Z,8.18
2019-04-12T16:52:52.762Z,8.00
2019-04-12T16:55:19.992Z,7.95
2019-04-12T16:57:47.106Z,7.88
2019-04-12T17:00:17.761Z,7.81
2019-04-12T17:02:44.965Z,7.76
2019-04-12T17:05:12.467Z,7.67
2019-04-12T17:07:50.779Z,7.66
2019-04-12T17:10:08.856Z,7.58
2019-04-12T17:12:36.085Z,7.52
2019-04-12T17:15:03.931Z,7.50
2019-04-12T17:17:31.563Z,7.46
2019-04-12T17:19:59.045Z,7.43
2019-04-12T17:22:26.383Z,7.38
2019-04-12T17:25:05.465Z,7.33
2019-04-12T17:27:22.693Z,7.19
2019-04-12T17:29:50.049Z,7.14
2019-04-12T17:32:17.227Z,7.09
2019-04-12T17:34:44.359Z,7.08
2019-04-12T17:37:11.909Z,7.08
2019-04-12T17:39:38.998Z,7.08
2019-04-12T17:42:06.188Z,7.08
2019-04-12T17:44:33.491Z,7.13
2019-04-12T17:47:00.763Z,7.10
2019-04-12T17:49:59.875Z,7.07
2019-04-12T17:52:42.401Z,7.07
2019-04-12T17:55:32.177Z,6.97
2019-04-12T17:57:59.435Z,6.89
2019-04-12T18:00:36.674Z,6.85
2019-04-12T18:03:03.968Z,6.84
2019-04-12T18:05:31.296Z,6.86
2019-04-12T18:07:58.560Z,6.89
2019-04-12T18:10:25.728Z,6.87
2019-04-12T18:12:53.192Z,6.84
2019-04-12T18:15:21.042Z,6.77
2019-04-12T18:17:48.378Z,6.73
2019-04-12T18:20:16.194Z,6.68
2019-04-12T18:22:43.453Z,6.73
2019-04-12T18:25:10.942Z,6.71
2019-04-12T18:27:38.201Z,6.69
2019-04-12T18:30:06.546Z,6.66
2019-04-12T18:32:33.718Z,6.66
2019-04-12T18:35:00.984Z,6.64
2019-04-12T18:37:28.267Z,6.62
2019-04-12T18:39:55.577Z,6.62
2019-04-12T18:42:22.758Z,6.60
2019-04-12T18:44:50.052Z,6.56
2019-04-12T18:47:17.243Z,6.52
2019-04-12T18:49:44.508Z,6.51
2019-04-12T18:52:11.758Z,6.45
2019-04-12T18:54:38.969Z,6.45
2019-04-12T18:57:06.162Z,6.36
2019-04-12T18:59:33.451Z,6.30
2019-04-12T19:02:00.538Z,6.31
2019-04-12T19:04:28.052Z,6.33
2019-04-12T19:06:55.285Z,6.38
2019-04-12T19:09:22.827Z,6.35
2019-04-12T19:11:50.183Z,6.29
2019-04-12T19:14:17.446Z,6.26
2019-04-12T19:16:44.769Z,6.24
2019-04-12T19:19:12.003Z,6.21
2019-04-12T19:21:39.301Z,6.21
2019-04-12T19:24:06.442Z,6.20
2019-04-12T19:26:33.758Z,6.18
2019-04-12T19:29:01.070Z,6.14
2019-04-12T19:31:46.543Z,6.12
2019-04-12T19:34:23.683Z,6.16
2019-04-12T19:36:58.516Z,6.18
2019-04-12T19:39:45.342Z,6.23
2019-04-12T19:42:12.555Z,6.13
2019-04-12T19:44:40.081Z,6.25
2019-04-12T19:47:07.449Z,6.22
2019-04-12T19:49:34.680Z,6.18
2019-04-12T19:52:01.962Z,6.13
2019-04-12T19:54:29.230Z,6.18
2019-04-12T19:56:56.750Z,6.11
2019-04-12T19:59:24.014Z,6.06
2019-04-12T20:01:51.292Z,6.17
2019-04-12T20:04:18.491Z,6.06
2019-04-12T20:06:45.708Z,5.98
2019-04-12T20:09:12.946Z,6.05
2019-04-12T20:11:40.512Z,5.99
2019-04-12T20:14:07.741Z,6.05
2019-04-12T20:16:35.082Z,5.92
2019-04-12T20:19:02.335Z,5.80
2019-04-12T20:21:29.534Z,5.83
2019-04-12T20:23:56.904Z,5.79
2019-04-12T20:26:23.978Z,5.74
2019-04-12T20:28:51.166Z,5.89
2019-04-12T20:31:18.792Z,5.96
2019-04-12T20:33:46.086Z,5.84
2019-04-12T20:36:13.306Z,5.79
2019-04-12T20:38:40.597Z,5.72
2019-04-12T20:41:07.763Z,5.82
2019-04-12T20:43:35.039Z,5.70
2019-04-12T20:46:02.326Z,5.67
2019-04-12T20:48:29.631Z,5.66
2019-04-12T20:50:57.248Z,5.71
2019-04-12T20:53:24.477Z,5.63
2019-04-12T20:55:52.088Z,5.72
2019-04-12T20:58:19.728Z,5.72
2019-04-12T21:00:47.670Z,5.59
2019-04-12T21:03:16.499Z,5.51
2019-04-12T21:05:44.188Z,5.42
2019-04-12T21:08:11.646Z,5.54
2019-04-12T21:10:39.052Z,5.64
2019-04-12T21:13:06.291Z,5.49
2019-04-12T21:15:33.530Z,5.41
2019-04-12T21:18:00.661Z,5.42
2019-04-12T21:20:27.955Z,5.39
2019-04-12T21:22:55.187Z,5.32
2019-04-12T21:25:22.449Z,5.29
2019-04-12T21:27:49.670Z,5.23
2019-04-12T21:30:25.308Z,5.26
2019-04-12T21:32:49.560Z,5.27
2019-04-12T21:35:18.141Z,5.29
2019-04-12T21:37:45.921Z,5.20
2019-04-12T21:40:13.192Z,5.14
2019-04-12T21:42:40.420Z,5.12
2019-04-12T21:45:07.757Z,5.11
2019-04-12T21:47:35.312Z,5.06
2019-04-12T21:50:09.659Z,4.98
2019-04-12T21:52:37.053Z,4.98
2019-04-12T21:55:04.432Z,4.98
2019-04-12T21:57:31.661Z,4.96
2019-04-12T21:59:58.953Z,4.94
2019-04-12T22:02:27.008Z,4.95
2019-04-12T22:04:56.350Z,4.87
2019-04-12T22:07:23.609Z,4.82
2019-04-12T22:09:50.877Z,4.75
2019-04-12T22:12:18.208Z,4.74
2019-04-12T22:14:45.468Z,4.71
2019-04-12T22:17:12.654Z,4.66
2019-04-12T22:19:40.299Z,4.62
2019-04-12T22:22:07.573Z,4.61
2019-04-12T22:24:34.767Z,4.67
2019-04-12T22:27:01.947Z,4.65
2019-04-12T22:29:29.211Z,4.67
2019-04-12T22:32:00.633Z,4.67
2019-04-12T22:34:28.334Z,4.70
2019-04-12T22:36:55.624Z,4.62
2019-04-12T22:39:23.300Z,4.61
2019-04-12T22:41:50.569Z,4.57
2019-04-12T22:44:18.122Z,4.56
2019-04-12T22:46:45.440Z,4.57
2019-04-12T22:49:12.785Z,4.59
2019-04-12T22:51:39.995Z,4.49
2019-04-12T22:54:07.215Z,4.45
2019-04-12T22:56:34.386Z,4.42
2019-04-12T22:59:01.635Z,4.42
2019-04-12T23:01:28.932Z,4.45
2019-04-12T23:04:05.345Z,4.46
2019-04-12T23:06:25.262Z,4.41
2019-04-12T23:08:52.609Z,4.39
2019-04-12T23:11:19.816Z,4.30
2019-04-12T23:13:46.935Z,4.32
2019-04-12T23:16:14.111Z,4.27
2019-04-12T23:18:41.282Z,4.25
2019-04-12T23:21:08.669Z,4.26
2019-04-12T23:23:35.893Z,4.22
2019-04-12T23:26:03.371Z,4.18
2019-04-12T23:28:30.622Z,4.16
2019-04-12T23:31:26.177Z,4.15
2019-04-12T23:34:16.637Z,4.15
2019-04-12T23:36:36.510Z,4.11
2019-04-12T23:39:05.772Z,4.12
2019-04-12T23:41:33.299Z,4.15
2019-04-12T23:44:00.519Z,4.17
2019-04-12T23:46:27.732Z,4.10
2019-04-12T23:48:54.939Z,4.13
2019-04-12T23:51:22.103Z,4.10
2019-04-12T23:53:49.316Z,4.01
2019-04-12T23:56:16.508Z,3.95
2019-04-12T23:58:43.815Z,3.89
